sensor_id;sensor_type;location;lat;lon;timestamp;pressure;altitude;pressure_sealevel;temperature
80422;BMP280;69763;50.182;9.144;2024-02-21T00:00:05;100879.66;;;4.92
80422;BMP280;69763;50.182;9.144;2024-02-21T00:02:30;100879.66;;;4.92
80422;BMP280;69763;50.182;9.144;2024-02-21T00:04:56;100876.09;;;4.95
80422;BMP280;69763;50.182;9.144;2024-02-21T00:07:21;100881.16;;;5.02
80422;BMP280;69763;50.182;9.144;2024-02-21T00:09:46;100876.69;;;5.08
80422;BMP280;69763;50.182;9.144;2024-02-21T00:12:12;100870.97;;;5.15
80422;BMP280;69763;50.182;9.144;2024-02-21T00:14:37;100871.25;;;5.26
80422;BMP280;69763;50.182;9.144;2024-02-21T00:17:04;100868.81;;;5.37
80422;BMP280;69763;50.182;9.144;2024-02-21T00:19:29;100864.13;;;5.47
80422;BMP280;69763;50.182;9.144;2024-02-21T00:21:55;100861.91;;;5.55
80422;BMP280;69763;50.182;9.144;2024-02-21T00:24:20;100864.53;;;5.64
80422;BMP280;69763;50.182;9.144;2024-02-21T00:26:45;100855.38;;;5.70
80422;BMP280;69763;50.182;9.144;2024-02-21T00:29:11;100849.84;;;5.74
80422;BMP280;69763;50.182;9.144;2024-02-21T00:31:36;100847.47;;;5.76
80422;BMP280;69763;50.182;9.144;2024-02-21T00:34:03;100861.34;;;5.74
80422;BMP280;69763;50.182;9.144;2024-02-21T00:36:28;100868.09;;;5.70
80422;BMP280;69763;50.182;9.144;2024-02-21T00:38:54;100860.34;;;5.63
80422;BMP280;69763;50.182;9.144;2024-02-21T00:41:19;100851.13;;;5.55
80422;BMP280;69763;50.182;9.144;2024-02-21T00:43:44;100852.19;;;5.48
80422;BMP280;69763;50.182;9.144;2024-02-21T00:46:10;100850.13;;;5.43
80422;BMP280;69763;50.182;9.144;2024-02-21T00:48:35;100837.44;;;5.34
80422;BMP280;69763;50.182;9.144;2024-02-21T00:51:02;100830.28;;;5.31
80422;BMP280;69763;50.182;9.144;2024-02-21T00:53:28;100820.91;;;5.27
80422;BMP280;69763;50.182;9.144;2024-02-21T00:55:53;100816.00;;;5.25
80422;BMP280;69763;50.182;9.144;2024-02-21T00:58:18;100821.81;;;5.24
80422;BMP280;69763;50.182;9.144;2024-02-21T01:00:44;100814.38;;;5.19
80422;BMP280;69763;50.182;9.144;2024-02-21T01:03:09;100812.28;;;5.14
80422;BMP280;69763;50.182;9.144;2024-02-21T01:05:34;100806.06;;;5.08
80422;BMP280;69763;50.182;9.144;2024-02-21T01:08:01;100797.09;;;5.01
80422;BMP280;69763;50.182;9.144;2024-02-21T01:10:27;100780.66;;;4.99
80422;BMP280;69763;50.182;9.144;2024-02-21T01:12:52;100765.00;;;4.98
80422;BMP280;69763;50.182;9.144;2024-02-21T01:15:18;100770.06;;;4.96
80422;BMP280;69763;50.182;9.144;2024-02-21T01:17:43;100759.50;;;4.92
80422;BMP280;69763;50.182;9.144;2024-02-21T01:20:09;100768.91;;;4.88
80422;BMP280;69763;50.182;9.144;2024-02-21T01:22:34;100779.06;;;4.84
80422;BMP280;69763;50.182;9.144;2024-02-21T01:25:01;100774.75;;;4.77
80422;BMP280;69763;50.182;9.144;2024-02-21T01:27:27;100768.50;;;4.71
80422;BMP280;69763;50.182;9.144;2024-02-21T01:29:52;100768.53;;;4.62
80422;BMP280;69763;50.182;9.144;2024-02-21T01:32:17;100771.22;;;4.53
80422;BMP280;69763;50.182;9.144;2024-02-21T01:34:43;100766.63;;;4.44
80422;BMP280;69763;50.182;9.144;2024-02-21T01:37:08;100763.03;;;4.38
80422;BMP280;69763;50.182;9.144;2024-02-21T01:39:33;100770.63;;;4.30
80422;BMP280;69763;50.182;9.144;2024-02-21T01:42:00;100773.59;;;4.23
80422;BMP280;69763;50.182;9.144;2024-02-21T01:44:25;100764.97;;;4.19
80422;BMP280;69763;50.182;9.144;2024-02-21T01:46:51;100764.66;;;4.17
80422;BMP280;69763;50.182;9.144;2024-02-21T01:49:17;100762.91;;;4.14
80422;BMP280;69763;50.182;9.144;2024-02-21T01:51:43;100750.38;;;4.11
80422;BMP280;69763;50.182;9.144;2024-02-21T01:54:09;100725.47;;;4.11
80422;BMP280;69763;50.182;9.144;2024-02-21T01:56:35;100723.53;;;4.11
80422;BMP280;69763;50.182;9.144;2024-02-21T01:59:02;100714.13;;;4.07
80422;BMP280;69763;50.182;9.144;2024-02-21T02:01:28;100703.84;;;4.05
80422;BMP280;69763;50.182;9.144;2024-02-21T02:03:54;100707.72;;;4.04
80422;BMP280;69763;50.182;9.144;2024-02-21T02:06:20;100707.72;;;4.04
80422;BMP280;69763;50.182;9.144;2024-02-21T02:08:46;100716.25;;;4.03
80422;BMP280;69763;50.182;9.144;2024-02-21T02:11:13;100709.09;;;4.00
80422;BMP280;69763;50.182;9.144;2024-02-21T02:13:38;100715.78;;;3.95
80422;BMP280;69763;50.182;9.144;2024-02-21T02:16:06;100717.41;;;3.92
80422;BMP280;69763;50.182;9.144;2024-02-21T02:18:31;100715.59;;;3.89
80422;BMP280;69763;50.182;9.144;2024-02-21T02:20:56;100709.97;;;3.87
80422;BMP280;69763;50.182;9.144;2024-02-21T02:23:25;100697.00;;;3.86
80422;BMP280;69763;50.182;9.144;2024-02-21T02:25:50;100698.50;;;3.87
80422;BMP280;69763;50.182;9.144;2024-02-21T02:28:16;100694.16;;;3.89
80422;BMP280;69763;50.182;9.144;2024-02-21T02:30:41;100691.31;;;3.93
80422;BMP280;69763;50.182;9.144;2024-02-21T02:33:06;100694.31;;;3.95
80422;BMP280;69763;50.182;9.144;2024-02-21T02:35:32;100700.16;;;4.03
80422;BMP280;69763;50.182;9.144;2024-02-21T02:37:58;100683.16;;;4.15
80422;BMP280;69763;50.182;9.144;2024-02-21T02:40:25;100677.91;;;4.29
80422;BMP280;69763;50.182;9.144;2024-02-21T02:42:50;100672.19;;;4.46
80422;BMP280;69763;50.182;9.144;2024-02-21T02:45:16;100670.06;;;4.59
80422;BMP280;69763;50.182;9.144;2024-02-21T02:47:41;100658.13;;;4.69
80422;BMP280;69763;50.182;9.144;2024-02-21T02:50:07;100659.25;;;4.77
80422;BMP280;69763;50.182;9.144;2024-02-21T02:52:33;100653.84;;;4.86
80422;BMP280;69763;50.182;9.144;2024-02-21T02:54:59;100648.59;;;4.92
80422;BMP280;69763;50.182;9.144;2024-02-21T02:57:25;100649.47;;;4.98
80422;BMP280;69763;50.182;9.144;2024-02-21T02:59:51;100654.97;;;5.03
80422;BMP280;69763;50.182;9.144;2024-02-21T03:02:17;100643.31;;;5.07
80422;BMP280;69763;50.182;9.144;2024-02-21T03:04:42;100646.56;;;5.11
80422;BMP280;69763;50.182;9.144;2024-02-21T03:07:08;100641.47;;;5.13
80422;BMP280;69763;50.182;9.144;2024-02-21T03:09:33;100635.19;;;5.16
80422;BMP280;69763;50.182;9.144;2024-02-21T03:11:58;100640.41;;;5.19
80422;BMP280;69763;50.182;9.144;2024-02-21T03:14:25;100647.53;;;5.22
80422;BMP280;69763;50.182;9.144;2024-02-21T03:16:51;100641.72;;;5.24
80422;BMP280;69763;50.182;9.144;2024-02-21T03:19:16;100655.72;;;5.28
80422;BMP280;69763;50.182;9.144;2024-02-21T03:21:42;100650.63;;;5.30
80422;BMP280;69763;50.182;9.144;2024-02-21T03:24:07;100649.44;;;5.31
80422;BMP280;69763;50.182;9.144;2024-02-21T03:26:32;100652.38;;;5.33
80422;BMP280;69763;50.182;9.144;2024-02-21T03:28:58;100658.50;;;5.33
80422;BMP280;69763;50.182;9.144;2024-02-21T03:31:24;100655.81;;;5.33
80422;BMP280;69763;50.182;9.144;2024-02-21T03:33:50;100640.88;;;5.32
80422;BMP280;69763;50.182;9.144;2024-02-21T03:36:15;100635.06;;;5.34
80422;BMP280;69763;50.182;9.144;2024-02-21T03:38:40;100628.03;;;5.36
80422;BMP280;69763;50.182;9.144;2024-02-21T03:41:06;100621.00;;;5.39
80422;BMP280;69763;50.182;9.144;2024-02-21T03:43:31;100620.09;;;5.42
80422;BMP280;69763;50.182;9.144;2024-02-21T03:45:56;100619.63;;;5.44
80422;BMP280;69763;50.182;9.144;2024-02-21T03:48:23;100631.84;;;5.45
80422;BMP280;69763;50.182;9.144;2024-02-21T03:50:48;100617.94;;;5.46
80422;BMP280;69763;50.182;9.144;2024-02-21T03:53:14;100616.28;;;5.49
80422;BMP280;69763;50.182;9.144;2024-02-21T03:55:39;100627.34;;;5.51
80422;BMP280;69763;50.182;9.144;2024-02-21T03:58:04;100623.16;;;5.50
80422;BMP280;69763;50.182;9.144;2024-02-21T04:00:30;100622.69;;;5.51
80422;BMP280;69763;50.182;9.144;2024-02-21T04:02:55;100620.75;;;5.52
80422;BMP280;69763;50.182;9.144;2024-02-21T04:05:22;100624.34;;;5.49
80422;BMP280;69763;50.182;9.144;2024-02-21T04:07:47;100623.16;;;5.50
80422;BMP280;69763;50.182;9.144;2024-02-21T04:10:12;100630.47;;;5.49
80422;BMP280;69763;50.182;9.144;2024-02-21T04:12:38;100620.94;;;5.48
80422;BMP280;69763;50.182;9.144;2024-02-21T04:15:04;100618.22;;;5.48
80422;BMP280;69763;50.182;9.144;2024-02-21T04:17:29;100622.88;;;5.48
80422;BMP280;69763;50.182;9.144;2024-02-21T04:20:02;100613.59;;;5.49
80422;BMP280;69763;50.182;9.144;2024-02-21T04:22:29;100612.41;;;5.50
80422;BMP280;69763;50.182;9.144;2024-02-21T04:24:54;100615.53;;;5.48
80422;BMP280;69763;50.182;9.144;2024-02-21T04:27:20;100602.84;;;5.49
80422;BMP280;69763;50.182;9.144;2024-02-21T04:29:45;100603.31;;;5.47
80422;BMP280;69763;50.182;9.144;2024-02-21T04:32:11;100597.91;;;5.47
80422;BMP280;69763;50.182;9.144;2024-02-21T04:34:36;100602.09;;;5.48
80422;BMP280;69763;50.182;9.144;2024-02-21T04:37:01;100603.31;;;5.47
80422;BMP280;69763;50.182;9.144;2024-02-21T04:39:28;100579.56;;;5.46
80422;BMP280;69763;50.182;9.144;2024-02-21T04:41:53;100594.50;;;5.47
80422;BMP280;69763;50.182;9.144;2024-02-21T04:44:19;100574.91;;;5.46
80422;BMP280;69763;50.182;9.144;2024-02-21T04:46:44;100564.16;;;5.46
80422;BMP280;69763;50.182;9.144;2024-02-21T04:49:09;100571.50;;;5.46
80422;BMP280;69763;50.182;9.144;2024-02-21T04:51:35;100561.47;;;5.46
80422;BMP280;69763;50.182;9.144;2024-02-21T04:54:00;100564.91;;;5.47
80422;BMP280;69763;50.182;9.144;2024-02-21T04:56:27;100564.91;;;5.47
80422;BMP280;69763;50.182;9.144;2024-02-21T04:58:52;100559.53;;;5.47
80422;BMP280;69763;50.182;9.144;2024-02-21T05:01:17;100572.97;;;5.47
80422;BMP280;69763;50.182;9.144;2024-02-21T05:03:43;100581.78;;;5.47
80422;BMP280;69763;50.182;9.144;2024-02-21T05:06:08;100580.31;;;5.46
80422;BMP280;69763;50.182;9.144;2024-02-21T05:08:33;100581.34;;;5.49
80422;BMP280;69763;50.182;9.144;2024-02-21T05:10:59;100574.47;;;5.48
80422;BMP280;69763;50.182;9.144;2024-02-21T05:13:26;100569.38;;;5.50
80422;BMP280;69763;50.182;9.144;2024-02-21T05:15:51;100577.00;;;5.51
80422;BMP280;69763;50.182;9.144;2024-02-21T05:18:16;100579.22;;;5.53
80422;BMP280;69763;50.182;9.144;2024-02-21T05:20:42;100573.84;;;5.53
80422;BMP280;69763;50.182;9.144;2024-02-21T05:23:07;100565.78;;;5.53
80422;BMP280;69763;50.182;9.144;2024-02-21T05:25:32;100563.53;;;5.51
80422;BMP280;69763;50.182;9.144;2024-02-21T05:27:58;100568.19;;;5.51
80422;BMP280;69763;50.182;9.144;2024-02-21T05:30:24;100566.22;;;5.51
80422;BMP280;69763;50.182;9.144;2024-02-21T05:32:50;100565.47;;;5.51
80422;BMP280;69763;50.182;9.144;2024-02-21T05:35:15;100583.56;;;5.50
80422;BMP280;69763;50.182;9.144;2024-02-21T05:37:40;100580.59;;;5.48
80422;BMP280;69763;50.182;9.144;2024-02-21T05:40:07;100581.03;;;5.47
80422;BMP280;69763;50.182;9.144;2024-02-21T05:42:32;100591.06;;;5.46
80422;BMP280;69763;50.182;9.144;2024-02-21T05:44:57;100595.44;;;5.44
80422;BMP280;69763;50.182;9.144;2024-02-21T05:47:24;100589.03;;;5.41
80422;BMP280;69763;50.182;9.144;2024-02-21T05:49:49;100588.28;;;5.40
80422;BMP280;69763;50.182;9.144;2024-02-21T05:52:15;100585.59;;;5.40
80422;BMP280;69763;50.182;9.144;2024-02-21T05:54:40;100585.28;;;5.38
80422;BMP280;69763;50.182;9.144;2024-02-21T05:57:07;100597.69;;;5.36
80422;BMP280;69763;50.182;9.144;2024-02-21T05:59:32;100594.72;;;5.34
80422;BMP280;69763;50.182;9.144;2024-02-21T06:01:58;100580.72;;;5.30
80422;BMP280;69763;50.182;9.144;2024-02-21T06:04:24;100571.84;;;5.24
80422;BMP280;69763;50.182;9.144;2024-02-21T06:06:50;100572.19;;;5.17
80422;BMP280;69763;50.182;9.144;2024-02-21T06:09:15;100551.22;;;5.06
80422;BMP280;69763;50.182;9.144;2024-02-21T06:11:40;100557.25;;;4.92
80422;BMP280;69763;50.182;9.144;2024-02-21T06:14:06;100542.84;;;4.80
80422;BMP280;69763;50.182;9.144;2024-02-21T06:16:31;100544.28;;;4.67
80422;BMP280;69763;50.182;9.144;2024-02-21T06:18:56;100540.91;;;4.57
80422;BMP280;69763;50.182;9.144;2024-02-21T06:21:23;100533.16;;;4.50
80422;BMP280;69763;50.182;9.144;2024-02-21T06:23:48;100534.88;;;4.38
80422;BMP280;69763;50.182;9.144;2024-02-21T06:26:14;100535.16;;;4.31
80422;BMP280;69763;50.182;9.144;2024-02-21T06:28:39;100519.25;;;4.27
80422;BMP280;69763;50.182;9.144;2024-02-21T06:31:04;100510.34;;;4.21
80422;BMP280;69763;50.182;9.144;2024-02-21T06:33:30;100505.88;;;4.18
80422;BMP280;69763;50.182;9.144;2024-02-21T06:35:55;100500.25;;;4.16
80422;BMP280;69763;50.182;9.144;2024-02-21T06:38:22;100502.44;;;4.18
80422;BMP280;69763;50.182;9.144;2024-02-21T06:40:47;100500.50;;;4.18
80422;BMP280;69763;50.182;9.144;2024-02-21T06:43:12;100511.69;;;4.17
80422;BMP280;69763;50.182;9.144;2024-02-21T06:45:38;100521.22;;;4.18
80422;BMP280;69763;50.182;9.144;2024-02-21T06:48:04;100513.03;;;4.21
80422;BMP280;69763;50.182;9.144;2024-02-21T06:50:29;100518.31;;;4.30
80422;BMP280;69763;50.182;9.144;2024-02-21T06:52:55;100520.09;;;4.43
80422;BMP280;69763;50.182;9.144;2024-02-21T06:55:21;100521.97;;;4.51
80422;BMP280;69763;50.182;9.144;2024-02-21T06:57:47;100528.50;;;4.59
80422;BMP280;69763;50.182;9.144;2024-02-21T07:00:13;100525.50;;;4.67
80422;BMP280;69763;50.182;9.144;2024-02-21T07:02:39;100516.78;;;4.72
80422;BMP280;69763;50.182;9.144;2024-02-21T07:05:05;100512.91;;;4.73
80422;BMP280;69763;50.182;9.144;2024-02-21T07:07:30;100528.47;;;4.69
80422;BMP280;69763;50.182;9.144;2024-02-21T07:09:55;100525.19;;;4.64
80422;BMP280;69763;50.182;9.144;2024-02-21T07:12:22;100521.94;;;4.60
80422;BMP280;69763;50.182;9.144;2024-02-21T07:14:47;100520.44;;;4.59
80422;BMP280;69763;50.182;9.144;2024-02-21T07:17:13;100529.66;;;4.68
80422;BMP280;69763;50.182;9.144;2024-02-21T07:19:38;100532.00;;;4.75
80422;BMP280;69763;50.182;9.144;2024-02-21T07:22:03;100541.16;;;4.92
80422;BMP280;69763;50.182;9.144;2024-02-21T07:24:29;100530.47;;;5.07
80422;BMP280;69763;50.182;9.144;2024-02-21T07:26:54;100520.66;;;5.18
80422;BMP280;69763;50.182;9.144;2024-02-21T07:29:21;100521.03;;;5.26
80422;BMP280;69763;50.182;9.144;2024-02-21T07:31:46;100524.28;;;5.30
80422;BMP280;69763;50.182;9.144;2024-02-21T07:34:11;100524.28;;;5.30
80422;BMP280;69763;50.182;9.144;2024-02-21T07:36:37;100523.53;;;5.29
80422;BMP280;69763;50.182;9.144;2024-02-21T07:39:02;100525.41;;;5.38
80422;BMP280;69763;50.182;9.144;2024-02-21T07:41:28;100524.78;;;5.58
80422;BMP280;69763;50.182;9.144;2024-02-21T07:43:53;100527.66;;;5.84
80422;BMP280;69763;50.182;9.144;2024-02-21T07:46:20;100538.38;;;6.13
80422;BMP280;69763;50.182;9.144;2024-02-21T07:48:45;100542.69;;;6.40
80422;BMP280;69763;50.182;9.144;2024-02-21T07:51:10;100547.16;;;6.63
80422;BMP280;69763;50.182;9.144;2024-02-21T07:53:36;100549.84;;;6.83
80422;BMP280;69763;50.182;9.144;2024-02-21T07:56:01;100551.19;;;6.93
80422;BMP280;69763;50.182;9.144;2024-02-21T07:58:26;100535.25;;;6.90
80422;BMP280;69763;50.182;9.144;2024-02-21T08:00:52;100547.66;;;6.82
80422;BMP280;69763;50.182;9.144;2024-02-21T08:03:18;100545.44;;;6.80
80422;BMP280;69763;50.182;9.144;2024-02-21T08:05:44;100547.66;;;6.82
80422;BMP280;69763;50.182;9.144;2024-02-21T08:08:09;100543.84;;;6.94
80422;BMP280;69763;50.182;9.144;2024-02-21T08:10:34;100539.81;;;7.04
80422;BMP280;69763;50.182;9.144;2024-02-21T08:13:00;100534.13;;;7.22
80422;BMP280;69763;50.182;9.144;2024-02-21T08:15:25;100535.50;;;7.38
80422;BMP280;69763;50.182;9.144;2024-02-21T08:17:51;100538.75;;;7.48
80422;BMP280;69763;50.182;9.144;2024-02-21T08:20:17;100525.63;;;7.55
80422;BMP280;69763;50.182;9.144;2024-02-21T08:22:42;100531.31;;;7.63
80422;BMP280;69763;50.182;9.144;2024-02-21T08:25:08;100529.66;;;7.71
80422;BMP280;69763;50.182;9.144;2024-02-21T08:27:33;100533.22;;;7.83
80422;BMP280;69763;50.182;9.144;2024-02-21T08:29:59;100531.75;;;7.93
80422;BMP280;69763;50.182;9.144;2024-02-21T08:32:24;100526.16;;;7.96
80422;BMP280;69763;50.182;9.144;2024-02-21T08:34:49;100525.16;;;7.94
80422;BMP280;69763;50.182;9.144;2024-02-21T08:37:16;100512.63;;;7.91
80422;BMP280;69763;50.182;9.144;2024-02-21T08:39:41;100503.28;;;7.86
80422;BMP280;69763;50.182;9.144;2024-02-21T08:42:07;100514.31;;;7.88
80422;BMP280;69763;50.182;9.144;2024-02-21T08:44:32;100504.00;;;7.87
80422;BMP280;69763;50.182;9.144;2024-02-21T08:46:57;100507.19;;;7.85
80422;BMP280;69763;50.182;9.144;2024-02-21T08:49:23;100504.53;;;7.91
80422;BMP280;69763;50.182;9.144;2024-02-21T08:51:48;100505.78;;;7.95
80422;BMP280;69763;50.182;9.144;2024-02-21T08:54:15;100498.91;;;7.94
80422;BMP280;69763;50.182;9.144;2024-02-21T08:56:40;100501.28;;;7.87
80422;BMP280;69763;50.182;9.144;2024-02-21T08:59:05;100495.63;;;7.79
80422;BMP280;69763;50.182;9.144;2024-02-21T09:01:31;100490.94;;;7.74
80422;BMP280;69763;50.182;9.144;2024-02-21T09:03:56;100491.69;;;7.75
80422;BMP280;69763;50.182;9.144;2024-02-21T09:06:22;100488.28;;;7.80
80422;BMP280;69763;50.182;9.144;2024-02-21T09:08:47;100486.38;;;7.91
80422;BMP280;69763;50.182;9.144;2024-02-21T09:11:14;100480.09;;;8.11
80422;BMP280;69763;50.182;9.144;2024-02-21T09:13:39;100482.66;;;8.26
80422;BMP280;69763;50.182;9.144;2024-02-21T09:16:05;100470.91;;;8.34
80422;BMP280;69763;50.182;9.144;2024-02-21T09:18:30;100473.63;;;8.45
80422;BMP280;69763;50.182;9.144;2024-02-21T09:20:56;100464.09;;;8.56
80422;BMP280;69763;50.182;9.144;2024-02-21T09:23:23;100456.25;;;8.58
80422;BMP280;69763;50.182;9.144;2024-02-21T09:25:49;100451.81;;;8.60
80422;BMP280;69763;50.182;9.144;2024-02-21T09:28:16;100447.69;;;8.70
80422;BMP280;69763;50.182;9.144;2024-02-21T09:30:42;100445.28;;;8.83
80422;BMP280;69763;50.182;9.144;2024-02-21T09:33:07;100447.72;;;9.04
80422;BMP280;69763;50.182;9.144;2024-02-21T09:35:33;100447.72;;;9.32
80422;BMP280;69763;50.182;9.144;2024-02-21T09:37:58;100445.75;;;9.38
80422;BMP280;69763;50.182;9.144;2024-02-21T09:40:23;100447.75;;;9.37
80422;BMP280;69763;50.182;9.144;2024-02-21T09:42:50;100442.09;;;9.35
80422;BMP280;69763;50.182;9.144;2024-02-21T09:45:25;100441.59;;;9.37
80422;BMP280;69763;50.182;9.144;2024-02-21T09:47:55;100440.56;;;9.51
80422;BMP280;69763;50.182;9.144;2024-02-21T09:50:24;100441.31;;;9.57
80422;BMP280;69763;50.182;9.144;2024-02-21T09:52:51;100443.28;;;9.68
80422;BMP280;69763;50.182;9.144;2024-02-21T09:55:18;100432.16;;;9.82
80422;BMP280;69763;50.182;9.144;2024-02-21T09:57:44;100437.06;;;9.84
80422;BMP280;69763;50.182;9.144;2024-02-21T10:00:10;100441.97;;;9.91
80422;BMP280;69763;50.182;9.144;2024-02-21T10:02:38;100437.25;;;10.02
80422;BMP280;69763;50.182;9.144;2024-02-21T10:05:04;100444.59;;;10.13
80422;BMP280;69763;50.182;9.144;2024-02-21T10:07:30;100441.13;;;10.18
80422;BMP280;69763;50.182;9.144;2024-02-21T10:10:00;100431.94;;;10.38
80422;BMP280;69763;50.182;9.144;2024-02-21T10:12:26;100437.72;;;10.53
80422;BMP280;69763;50.182;9.144;2024-02-21T10:15:00;100431.31;;;10.56
80422;BMP280;69763;50.182;9.144;2024-02-21T10:17:25;100437.19;;;10.66
80422;BMP280;69763;50.182;9.144;2024-02-21T10:19:52;100426.00;;;10.75
80422;BMP280;69763;50.182;9.144;2024-02-21T10:22:17;100424.53;;;10.79
80422;BMP280;69763;50.182;9.144;2024-02-21T10:24:43;100421.72;;;10.91
80422;BMP280;69763;50.182;9.144;2024-02-21T10:27:09;100422.84;;;11.01
80422;BMP280;69763;50.182;9.144;2024-02-21T10:29:35;100413.69;;;11.04
80422;BMP280;69763;50.182;9.144;2024-02-21T10:32:07;100403.28;;;11.08
80422;BMP280;69763;50.182;9.144;2024-02-21T10:34:33;100396.50;;;11.25
80422;BMP280;69763;50.182;9.144;2024-02-21T10:37:01;100396.38;;;11.37
80422;BMP280;69763;50.182;9.144;2024-02-21T10:39:27;100385.75;;;11.39
80422;BMP280;69763;50.182;9.144;2024-02-21T10:41:52;100372.22;;;11.33
80422;BMP280;69763;50.182;9.144;2024-02-21T10:44:18;100372.75;;;11.32
80422;BMP280;69763;50.182;9.144;2024-02-21T10:46:45;100364.88;;;11.28
80422;BMP280;69763;50.182;9.144;2024-02-21T10:49:14;100366.66;;;11.25
80422;BMP280;69763;50.182;9.144;2024-02-21T10:51:44;100354.88;;;11.17
80422;BMP280;69763;50.182;9.144;2024-02-21T10:54:29;100352.97;;;11.12
80422;BMP280;69763;50.182;9.144;2024-02-21T10:56:55;100357.59;;;11.17
80422;BMP280;69763;50.182;9.144;2024-02-21T10:59:22;100353.59;;;11.24
80422;BMP280;69763;50.182;9.144;2024-02-21T11:01:48;100347.59;;;11.31
80422;BMP280;69763;50.182;9.144;2024-02-21T11:04:13;100345.38;;;11.29
80422;BMP280;69763;50.182;9.144;2024-02-21T11:06:40;100340.88;;;11.38
80422;BMP280;69763;50.182;9.144;2024-02-21T11:09:07;100339.69;;;11.52
80422;BMP280;69763;50.182;9.144;2024-02-21T11:11:35;100336.63;;;11.61
80422;BMP280;69763;50.182;9.144;2024-02-21T11:14:05;100336.91;;;11.57
80422;BMP280;69763;50.182;9.144;2024-02-21T11:16:35;100335.16;;;11.60
80422;BMP280;69763;50.182;9.144;2024-02-21T11:19:04;100325.00;;;11.60
80422;BMP280;69763;50.182;9.144;2024-02-21T11:21:33;100322.38;;;11.55
80422;BMP280;69763;50.182;9.144;2024-02-21T11:23:58;100325.31;;;11.38
80422;BMP280;69763;50.182;9.144;2024-02-21T11:26:28;100322.44;;;11.30
80422;BMP280;69763;50.182;9.144;2024-02-21T11:28:58;100308.72;;;11.42
80422;BMP280;69763;50.182;9.144;2024-02-21T11:31:24;100309.22;;;11.40
80422;BMP280;69763;50.182;9.144;2024-02-21T11:33:51;100309.91;;;11.65
80422;BMP280;69763;50.182;9.144;2024-02-21T11:36:23;100296.28;;;11.89
80422;BMP280;69763;50.182;9.144;2024-02-21T11:38:49;100280.34;;;11.80
80422;BMP280;69763;50.182;9.144;2024-02-21T11:41:14;100282.69;;;11.89
80422;BMP280;69763;50.182;9.144;2024-02-21T11:43:39;100279.81;;;12.00
80422;BMP280;69763;50.182;9.144;2024-02-21T11:46:06;100271.66;;;12.00
80422;BMP280;69763;50.182;9.144;2024-02-21T11:48:32;100270.50;;;12.09
80422;BMP280;69763;50.182;9.144;2024-02-21T11:50:57;100252.63;;;12.00
80422;BMP280;69763;50.182;9.144;2024-02-21T11:53:23;100254.19;;;11.96
80422;BMP280;69763;50.182;9.144;2024-02-21T11:55:49;100245.84;;;12.07
80422;BMP280;69763;50.182;9.144;2024-02-21T11:58:15;100243.88;;;12.07
80422;BMP280;69763;50.182;9.144;2024-02-21T12:00:40;100234.38;;;12.14
80422;BMP280;69763;50.182;9.144;2024-02-21T12:03:07;100234.16;;;12.12
80422;BMP280;69763;50.182;9.144;2024-02-21T12:05:33;100232.91;;;12.13
80422;BMP280;69763;50.182;9.144;2024-02-21T12:07:59;100217.34;;;12.13
80422;BMP280;69763;50.182;9.144;2024-02-21T12:10:25;100214.31;;;12.17
80422;BMP280;69763;50.182;9.144;2024-02-21T12:12:51;100205.00;;;12.12
80422;BMP280;69763;50.182;9.144;2024-02-21T12:15:18;100193.16;;;12.10
80422;BMP280;69763;50.182;9.144;2024-02-21T12:17:43;100188.56;;;12.05
80422;BMP280;69763;50.182;9.144;2024-02-21T12:20:10;100193.06;;;12.15
80422;BMP280;69763;50.182;9.144;2024-02-21T12:22:36;100190.50;;;12.23
80422;BMP280;69763;50.182;9.144;2024-02-21T12:25:03;100187.53;;;12.21
80422;BMP280;69763;50.182;9.144;2024-02-21T12:27:28;100181.69;;;12.17
80422;BMP280;69763;50.182;9.144;2024-02-21T12:29:53;100179.72;;;12.18
80422;BMP280;69763;50.182;9.144;2024-02-21T12:32:19;100168.09;;;12.17
80422;BMP280;69763;50.182;9.144;2024-02-21T12:34:44;100167.88;;;12.15
80422;BMP280;69763;50.182;9.144;2024-02-21T12:37:11;100164.38;;;12.20
80422;BMP280;69763;50.182;9.144;2024-02-21T12:39:37;100164.69;;;12.30
80422;BMP280;69763;50.182;9.144;2024-02-21T12:42:03;100159.03;;;12.28
80422;BMP280;69763;50.182;9.144;2024-02-21T12:44:28;100152.84;;;12.27
80422;BMP280;69763;50.182;9.144;2024-02-21T12:46:53;100142.81;;;12.22
80422;BMP280;69763;50.182;9.144;2024-02-21T12:49:19;100140.16;;;12.03
80422;BMP280;69763;50.182;9.144;2024-02-21T12:51:44;100129.94;;;12.09
80422;BMP280;69763;50.182;9.144;2024-02-21T12:54:11;100126.72;;;12.11
80422;BMP280;69763;50.182;9.144;2024-02-21T12:56:36;100119.50;;;12.13
80422;BMP280;69763;50.182;9.144;2024-02-21T12:59:02;100119.41;;;12.06
80422;BMP280;69763;50.182;9.144;2024-02-21T13:01:27;100113.44;;;12.07
80422;BMP280;69763;50.182;9.144;2024-02-21T13:03:53;100112.50;;;12.18
80422;BMP280;69763;50.182;9.144;2024-02-21T13:06:18;100098.72;;;12.29
80422;BMP280;69763;50.182;9.144;2024-02-21T13:08:43;100095.38;;;12.36
80422;BMP280;69763;50.182;9.144;2024-02-21T13:11:10;100109.88;;;12.39
80422;BMP280;69763;50.182;9.144;2024-02-21T13:13:35;100108.34;;;12.30
80422;BMP280;69763;50.182;9.144;2024-02-21T13:16:01;100094.13;;;12.24
80422;BMP280;69763;50.182;9.144;2024-02-21T13:18:27;100099.75;;;12.13
80422;BMP280;69763;50.182;9.144;2024-02-21T13:20:52;100090.13;;;12.12
80422;BMP280;69763;50.182;9.144;2024-02-21T13:23:17;100080.94;;;12.15
80422;BMP280;69763;50.182;9.144;2024-02-21T13:25:43;100076.03;;;12.13
80422;BMP280;69763;50.182;9.144;2024-02-21T13:28:10;100076.44;;;12.04
80422;BMP280;69763;50.182;9.144;2024-02-21T13:30:35;100070.00;;;11.94
80422;BMP280;69763;50.182;9.144;2024-02-21T13:33:01;100064.75;;;11.83
80422;BMP280;69763;50.182;9.144;2024-02-21T13:35:26;100067.53;;;11.64
80422;BMP280;69763;50.182;9.144;2024-02-21T13:37:51;100068.31;;;11.46
80422;BMP280;69763;50.182;9.144;2024-02-21T13:40:17;100064.13;;;11.32
80422;BMP280;69763;50.182;9.144;2024-02-21T13:42:42;100049.44;;;11.22
80422;BMP280;69763;50.182;9.144;2024-02-21T13:45:09;100042.13;;;11.17
80422;BMP280;69763;50.182;9.144;2024-02-21T13:47:35;100035.97;;;11.16
80422;BMP280;69763;50.182;9.144;2024-02-21T13:50:00;100027.09;;;11.16
80422;BMP280;69763;50.182;9.144;2024-02-21T13:52:26;100037.22;;;11.15
80422;BMP280;69763;50.182;9.144;2024-02-21T13:54:51;100015.38;;;11.08
80422;BMP280;69763;50.182;9.144;2024-02-21T13:57:16;100021.84;;;11.05